createdAt,value
2023-05-19T00:00:22.586Z,20.70
2023-05-19T00:01:24.343Z,20.66
2023-05-19T00:02:26.305Z,20.65
2023-05-19T00:03:28.299Z,20.63
2023-05-19T00:04:30.034Z,20.63
2023-05-19T00:05:31.800Z,20.62
2023-05-19T00:06:33.618Z,20.62
2023-05-19T00:09:02.567Z,20.60
2023-05-19T00:10:04.616Z,20.59
2023-05-19T00:11:06.355Z,20.59
2023-05-19T00:13:29.419Z,20.56
2023-05-19T00:14:31.257Z,20.54
2023-05-19T00:15:33.156Z,20.54
2023-05-19T00:16:35.092Z,20.52
2023-05-19T00:17:36.898Z,20.52
2023-05-19T00:18:38.673Z,20.50
2023-05-19T00:19:40.617Z,20.50
2023-05-19T00:20:42.439Z,20.48
2023-05-19T00:21:44.177Z,20.44
2023-05-19T00:22:45.924Z,20.48
2023-05-19T00:23:47.685Z,20.48
2023-05-19T00:24:49.452Z,20.48
2023-05-19T00:25:51.192Z,20.47
2023-05-19T00:26:53.024Z,20.49
2023-05-19T00:27:54.852Z,20.48
2023-05-19T00:28:56.713Z,20.48
2023-05-19T00:29:58.461Z,20.47
2023-05-19T00:31:00.288Z,20.46
2023-05-19T00:32:02.181Z,20.47
2023-05-19T00:33:04.100Z,20.45
2023-05-19T00:34:05.840Z,20.46
2023-05-19T00:35:07.591Z,20.44
2023-05-19T00:36:09.527Z,20.38
2023-05-19T00:37:11.367Z,20.38
2023-05-19T00:38:13.192Z,20.40
2023-05-19T00:39:15.099Z,20.40
2023-05-19T00:40:16.929Z,20.40
2023-05-19T00:41:18.841Z,20.38
2023-05-19T00:42:20.623Z,20.37
2023-05-19T00:43:22.455Z,20.37
2023-05-19T00:44:24.345Z,20.38
2023-05-19T00:45:26.096Z,20.38
2023-05-19T00:46:28.008Z,20.40
2023-05-19T00:47:29.940Z,20.39
2023-05-19T00:48:31.822Z,20.40
2023-05-19T00:49:33.702Z,20.38
2023-05-19T00:50:35.567Z,20.38
2023-05-19T00:51:37.305Z,20.37
2023-05-19T00:52:39.046Z,20.38
2023-05-19T00:53:40.803Z,20.35
2023-05-19T00:54:42.562Z,20.35
2023-05-19T00:55:44.303Z,20.40
2023-05-19T00:56:46.143Z,20.39
2023-05-19T00:57:47.913Z,20.40
2023-05-19T00:58:49.741Z,20.41
2023-05-19T00:59:51.528Z,20.40
2023-05-19T01:00:53.386Z,20.42
2023-05-19T01:01:55.210Z,20.41
2023-05-19T01:02:57.346Z,20.42
2023-05-19T01:03:59.485Z,20.44
2023-05-19T01:05:01.395Z,20.44
2023-05-19T01:06:03.234Z,20.45
2023-05-19T01:07:05.081Z,20.46
2023-05-19T01:08:06.828Z,20.47
2023-05-19T01:09:08.561Z,20.47
2023-05-19T01:10:10.547Z,20.47
2023-05-19T01:11:12.397Z,20.47
2023-05-19T01:12:14.259Z,20.47
2023-05-19T01:13:16.097Z,20.47
2023-05-19T01:14:17.938Z,20.44
2023-05-19T01:15:19.812Z,20.47
2023-05-19T01:16:21.697Z,20.46
2023-05-19T01:17:23.407Z,20.47
2023-05-19T01:18:25.154Z,20.47
2023-05-19T01:19:27.011Z,20.47
2023-05-19T01:20:28.882Z,20.46
2023-05-19T01:21:30.794Z,20.44
2023-05-19T01:22:32.624Z,20.41
2023-05-19T01:23:34.374Z,20.39
2023-05-19T01:24:36.112Z,20.36
2023-05-19T01:25:38.029Z,20.35
2023-05-19T01:26:39.845Z,20.33
2023-05-19T01:27:41.689Z,20.31
2023-05-19T01:28:43.564Z,20.30
2023-05-19T01:29:45.396Z,20.31
2023-05-19T01:30:47.270Z,20.30
2023-05-19T01:31:49.086Z,20.30
2023-05-19T01:32:50.798Z,20.31
2023-05-19T01:33:52.623Z,20.31
2023-05-19T01:34:54.352Z,20.31
2023-05-19T01:35:56.203Z,20.31
2023-05-19T01:36:58.052Z,20.31
2023-05-19T01:37:59.901Z,20.29
2023-05-19T01:39:01.738Z,20.28
2023-05-19T01:40:03.586Z,20.26
2023-05-19T01:41:05.476Z,20.26
2023-05-19T01:42:07.322Z,20.27
2023-05-19T01:43:09.074Z,20.26
2023-05-19T01:44:10.800Z,20.25
2023-05-19T01:45:12.539Z,20.25
2023-05-19T01:46:14.937Z,20.24
2023-05-19T01:47:16.785Z,20.28
2023-05-19T01:48:18.524Z,20.30
2023-05-19T01:49:20.260Z,20.30
2023-05-19T01:50:22.099Z,20.31
2023-05-19T01:51:23.967Z,20.32
2023-05-19T01:52:25.823Z,20.32
2023-05-19T01:53:27.676Z,20.31
2023-05-19T01:54:29.553Z,20.30
2023-05-19T01:55:31.294Z,20.29
2023-05-19T01:56:33.187Z,20.28
2023-05-19T01:57:35.030Z,20.27
2023-05-19T01:58:36.868Z,20.27
2023-05-19T01:59:38.716Z,20.27
2023-05-19T02:00:40.565Z,20.26
2023-05-19T02:01:42.515Z,20.27
2023-05-19T02:02:44.313Z,20.26
2023-05-19T02:03:46.039Z,20.28
2023-05-19T02:04:47.913Z,20.31
2023-05-19T02:05:49.928Z,20.31
2023-05-19T02:06:51.821Z,20.32
2023-05-19T02:07:53.681Z,20.33
2023-05-19T02:08:55.412Z,20.34
2023-05-19T02:09:57.145Z,20.31
2023-05-19T02:10:58.996Z,20.36
2023-05-19T02:12:00.774Z,20.37
2023-05-19T02:13:02.533Z,20.38
2023-05-19T02:14:04.287Z,20.39
2023-05-19T02:15:06.133Z,20.38
2023-05-19T02:16:08.516Z,20.39
2023-05-19T02:17:10.346Z,20.40
2023-05-19T02:18:12.124Z,20.40
2023-05-19T02:19:13.967Z,20.44
2023-05-19T02:20:15.786Z,20.46
2023-05-19T02:21:17.640Z,20.47
2023-05-19T02:22:19.428Z,20.49
2023-05-19T02:23:21.286Z,20.50
2023-05-19T02:24:23.108Z,20.52
2023-05-19T02:25:24.965Z,20.54
2023-05-19T02:26:26.814Z,20.54
2023-05-19T02:27:28.697Z,20.57
2023-05-19T02:28:30.553Z,20.58
2023-05-19T02:29:32.285Z,20.59
2023-05-19T02:30:34.265Z,20.61
2023-05-19T02:31:36.234Z,20.63
2023-05-19T02:32:38.035Z,20.64
2023-05-19T02:33:39.803Z,20.65
2023-05-19T02:34:41.550Z,20.66
2023-05-19T02:35:43.399Z,20.67
2023-05-19T02:36:45.239Z,20.69
2023-05-19T02:37:47.019Z,20.67
2023-05-19T02:38:48.769Z,20.67
2023-05-19T02:39:50.529Z,20.66
2023-05-19T02:40:52.372Z,20.64
2023-05-19T02:41:54.102Z,20.61
2023-05-19T02:42:55.994Z,20.60
2023-05-19T02:43:57.740Z,20.57
2023-05-19T02:44:59.600Z,20.57
2023-05-19T02:46:01.479Z,20.56
2023-05-19T02:47:03.280Z,20.55
2023-05-19T02:48:05.207Z,20.53
2023-05-19T02:49:07.019Z,20.52
2023-05-19T02:50:09.370Z,20.49
2023-05-19T02:51:11.118Z,20.48
2023-05-19T02:52:12.960Z,20.47
2023-05-19T02:53:14.852Z,20.44
2023-05-19T02:54:16.679Z,20.42
2023-05-19T02:55:18.522Z,20.39
2023-05-19T02:56:20.448Z,20.38
2023-05-19T02:57:22.299Z,20.38
2023-05-19T02:58:24.179Z,20.37
2023-05-19T02:59:26.014Z,20.36
2023-05-19T03:00:27.858Z,20.36
2023-05-19T03:01:29.707Z,20.36
2023-05-19T03:02:31.523Z,20.35
2023-05-19T03:03:33.360Z,20.34
2023-05-19T03:04:35.167Z,20.33
2023-05-19T03:05:36.900Z,20.33
2023-05-19T03:06:38.952Z,20.33
2023-05-19T03:07:40.864Z,20.31
2023-05-19T03:08:42.710Z,20.33
2023-05-19T03:09:44.667Z,20.34
2023-05-19T03:10:46.618Z,20.33
2023-05-19T03:11:48.370Z,20.31
2023-05-19T03:12:50.331Z,20.32
2023-05-19T03:13:52.272Z,20.34
2023-05-19T03:14:54.528Z,20.35
2023-05-19T03:15:56.315Z,20.35
2023-05-19T03:16:58.330Z,20.35
2023-05-19T03:18:00.259Z,20.35
2023-05-19T03:19:02.294Z,20.35
2023-05-19T03:20:04.380Z,20.35
2023-05-19T03:21:06.229Z,20.35
2023-05-19T03:22:07.973Z,20.34
2023-05-19T03:23:09.790Z,20.35
2023-05-19T03:24:11.681Z,20.34
2023-05-19T03:25:13.406Z,20.33
2023-05-19T03:26:15.735Z,20.33
2023-05-19T03:27:17.776Z,20.33
2023-05-19T03:28:19.521Z,20.34
2023-05-19T03:29:21.395Z,20.33
2023-05-19T03:30:23.240Z,20.32
2023-05-19T03:31:25.168Z,20.31
2023-05-19T03:32:27.416Z,20.31
2023-05-19T03:33:29.393Z,20.30
2023-05-19T03:34:31.224Z,20.29
2023-05-19T03:35:33.073Z,20.31
2023-05-19T03:36:35.033Z,20.30
2023-05-19T03:37:36.978Z,20.29
2023-05-19T03:38:38.948Z,20.31
2023-05-19T03:39:40.715Z,20.31
2023-05-19T03:40:42.631Z,20.33
2023-05-19T03:41:44.587Z,20.32
2023-05-19T03:42:46.849Z,20.32
2023-05-19T03:43:48.709Z,20.33
2023-05-19T03:44:50.642Z,20.34
2023-05-19T03:45:52.662Z,20.33
2023-05-19T03:46:54.554Z,20.34
2023-05-19T03:47:56.492Z,20.35
2023-05-19T03:48:58.358Z,20.35
2023-05-19T03:50:00.236Z,20.36
2023-05-19T03:51:02.375Z,20.34
2023-05-19T03:52:04.308Z,20.34
2023-05-19T03:53:06.077Z,20.36
2023-05-19T03:54:08.009Z,20.36
2023-05-19T03:55:09.866Z,20.39
2023-05-19T03:56:11.926Z,20.40
2023-05-19T03:57:13.784Z,20.41
2023-05-19T03:58:15.732Z,20.43
2023-05-19T03:59:17.670Z,20.43
2023-05-19T04:00:19.941Z,20.45
2023-05-19T04:01:21.898Z,20.47
2023-05-19T04:02:23.713Z,20.47
2023-05-19T04:03:25.535Z,20.49
2023-05-19T04:04:27.362Z,20.48
2023-05-19T04:05:29.174Z,20.51
2023-05-19T04:06:31.042Z,20.52
2023-05-19T04:07:32.743Z,20.54
2023-05-19T04:08:34.490Z,20.55
2023-05-19T04:09:36.221Z,20.54
2023-05-19T04:10:38.299Z,20.55
2023-05-19T04:11:40.121Z,20.56
2023-05-19T04:12:41.958Z,20.56
2023-05-19T04:13:45.193Z,20.56
2023-05-19T04:14:47.269Z,20.56
2023-05-19T04:15:49.101Z,20.55
2023-05-19T04:16:50.965Z,20.56
2023-05-19T04:17:52.765Z,20.56
2023-05-19T04:18:54.589Z,20.56
2023-05-19T04:19:56.521Z,20.57
2023-05-19T04:20:58.675Z,20.58
2023-05-19T04:22:00.622Z,20.58
2023-05-19T04:23:02.575Z,20.59
2023-05-19T04:24:04.482Z,20.60
2023-05-19T04:25:06.376Z,20.60
2023-05-19T04:26:08.844Z,20.61
2023-05-19T04:27:10.699Z,20.63
2023-05-19T04:28:12.644Z,20.64
2023-05-19T04:29:14.497Z,20.64
2023-05-19T04:30:18.426Z,20.66
2023-05-19T04:31:20.101Z,20.64
2023-05-19T04:32:21.935Z,20.69
2023-05-19T04:33:23.943Z,20.70
2023-05-19T04:34:25.686Z,20.71
2023-05-19T04:35:27.644Z,20.71
2023-05-19T04:36:29.700Z,20.71
2023-05-19T04:37:31.571Z,20.78
2023-05-19T04:38:33.544Z,20.79
2023-05-19T04:39:35.554Z,20.81
2023-05-19T04:40:37.409Z,20.83
2023-05-19T04:41:39.358Z,20.88
2023-05-19T04:42:41.224Z,20.91
2023-05-19T04:43:43.266Z,20.94
2023-05-19T04:44:45.128Z,20.96
2023-05-19T04:45:47.077Z,20.99
2023-05-19T04:46:49.270Z,21.01
2023-05-19T04:47:51.202Z,21.03
2023-05-19T04:48:53.021Z,21.05
2023-05-19T04:49:54.875Z,21.08
2023-05-19T04:50:56.843Z,21.09
2023-05-19T04:51:58.778Z,21.12
2023-05-19T04:53:00.632Z,21.14
2023-05-19T04:54:02.476Z,21.18
2023-05-19T04:55:04.427Z,21.19
2023-05-19T04:56:06.595Z,21.21
2023-05-19T04:57:08.538Z,21.22
2023-05-19T04:58:10.398Z,21.24
2023-05-19T04:59:12.241Z,21.25
2023-05-19T05:00:15.025Z,21.27
2023-05-19T05:01:17.117Z,21.29
2023-05-19T05:02:19.264Z,21.33
2023-05-19T05:03:21.364Z,21.34
2023-05-19T05:04:23.194Z,21.38
2023-05-19T05:05:25.079Z,21.40
2023-05-19T05:06:26.934Z,21.45
2023-05-19T05:07:30.844Z,21.48
2023-05-19T05:08:32.384Z,21.51
2023-05-19T05:09:34.327Z,21.55
2023-05-19T05:10:36.379Z,21.58
2023-05-19T05:11:38.276Z,21.63
2023-05-19T05:12:40.051Z,21.67
2023-05-19T05:13:41.927Z,21.69
2023-05-19T05:14:43.764Z,21.73
2023-05-19T05:15:45.595Z,21.79
2023-05-19T05:16:47.572Z,21.80
2023-05-19T05:17:49.882Z,21.85
2023-05-19T05:18:51.918Z,21.85
2023-05-19T05:19:53.849Z,21.87
2023-05-19T05:20:55.703Z,21.90
2023-05-19T05:21:57.649Z,21.94
2023-05-19T05:22:59.508Z,21.98
2023-05-19T05:24:01.467Z,22.01
2023-05-19T05:25:03.410Z,22.04
2023-05-19T05:26:05.467Z,22.07
2023-05-19T05:27:07.409Z,22.10
2023-05-19T05:28:09.295Z,22.13
2023-05-19T05:29:11.351Z,22.16
2023-05-19T05:30:13.372Z,22.19
2023-05-19T05:31:15.230Z,22.23
2023-05-19T05:32:17.062Z,22.25
2023-05-19T05:33:19.158Z,22.27
2023-05-19T05:34:21.287Z,22.30
2023-05-19T05:35:23.140Z,22.32
2023-05-19T05:36:25.032Z,22.34
2023-05-19T05:37:26.940Z,22.36
2023-05-19T05:38:28.720Z,22.37
2023-05-19T05:39:30.564Z,22.41
2023-05-19T05:40:32.532Z,22.43
2023-05-19T05:41:34.250Z,22.44
2023-05-19T05:42:36.108Z,22.46
2023-05-19T05:43:38.000Z,22.47
2023-05-19T05:44:39.850Z,22.52
2023-05-19T05:45:41.723Z,22.54
2023-05-19T05:46:43.603Z,22.56
2023-05-19T05:47:45.611Z,22.57
2023-05-19T05:48:47.549Z,22.60
2023-05-19T05:49:49.926Z,22.63
2023-05-19T05:50:52.988Z,22.65
2023-05-19T05:52:58.370Z,22.71
2023-05-19T05:54:00.128Z,22.74
2023-05-19T05:55:01.993Z,22.76
2023-05-19T05:56:03.877Z,22.78
2023-05-19T05:57:05.722Z,22.80
2023-05-19T05:58:07.572Z,22.81
2023-05-19T05:59:09.449Z,22.83
2023-05-19T06:00:11.885Z,22.85
2023-05-19T06:01:13.726Z,22.88
2023-05-19T06:02:15.695Z,22.88
2023-05-19T06:03:17.650Z,22.91
2023-05-19T06:04:19.863Z,22.92
2023-05-19T06:05:21.777Z,22.94
2023-05-19T06:06:23.665Z,22.97
2023-05-19T06:07:25.517Z,22.98
2023-05-19T06:08:27.369Z,23.00
2023-05-19T06:09:29.133Z,23.03
2023-05-19T06:10:32.664Z,23.05
2023-05-19T06:11:34.836Z,23.08
2023-05-19T06:12:36.695Z,23.09
2023-05-19T06:13:38.539Z,23.10
2023-05-19T06:14:40.440Z,23.12
2023-05-19T06:15:42.327Z,23.14
2023-05-19T06:16:44.212Z,23.17
2023-05-19T06:17:46.378Z,23.19
2023-05-19T06:18:48.242Z,23.20
2023-05-19T06:19:50.091Z,23.20
2023-05-19T06:20:51.948Z,23.22
2023-05-19T06:21:53.802Z,23.23
2023-05-19T06:22:55.560Z,23.26
2023-05-19T06:23:57.409Z,23.28
2023-05-19T06:24:59.317Z,23.28
2023-05-19T06:26:01.267Z,23.32
2023-05-19T06:27:03.219Z,23.34
2023-05-19T06:28:05.172Z,23.37
2023-05-19T06:29:07.135Z,23.39
2023-05-19T06:30:10.102Z,23.42
2023-05-19T06:31:14.868Z,23.43
2023-05-19T06:32:16.566Z,23.46
2023-05-19T06:33:18.419Z,23.48
2023-05-19T06:34:20.371Z,23.50
2023-05-19T06:35:22.307Z,23.52
2023-05-19T06:36:24.280Z,23.54
2023-05-19T06:37:26.224Z,23.58
2023-05-19T06:38:28.187Z,23.60
2023-05-19T06:39:30.018Z,23.63
2023-05-19T06:40:32.174Z,23.65
2023-05-19T06:41:34.358Z,23.67
2023-05-19T06:42:36.218Z,23.70
2023-05-19T06:43:40.672Z,23.73
2023-05-19T06:44:42.480Z,23.75
2023-05-19T06:45:44.405Z,23.75
2023-05-19T06:46:46.489Z,23.75
2023-05-19T06:47:48.568Z,23.81
2023-05-19T06:48:50.467Z,23.82
2023-05-19T06:49:52.417Z,23.80
2023-05-19T06:50:54.721Z,23.87
2023-05-19T06:51:56.532Z,23.89
2023-05-19T06:52:58.534Z,23.92
2023-05-19T06:54:00.574Z,23.96
2023-05-19T06:55:02.596Z,23.96
2023-05-19T06:56:04.664Z,23.99
2023-05-19T06:57:06.900Z,23.99
2023-05-19T06:58:08.759Z,24.02
2023-05-19T06:59:10.805Z,24.03
2023-05-19T07:00:15.255Z,24.06
2023-05-19T07:01:17.094Z,24.08
2023-05-19T07:02:19.021Z,24.11
2023-05-19T07:03:21.500Z,24.14
2023-05-19T07:04:23.544Z,24.17
2023-05-19T07:05:25.918Z,24.20
2023-05-19T07:06:27.863Z,24.22
2023-05-19T07:07:29.814Z,24.23
2023-05-19T07:08:31.762Z,24.26
2023-05-19T07:09:33.761Z,24.27
2023-05-19T07:10:35.968Z,24.28
2023-05-19T07:11:37.822Z,24.30
2023-05-19T07:12:39.565Z,24.32
2023-05-19T07:13:41.419Z,24.33
2023-05-19T07:14:43.274Z,24.35
2023-05-19T07:15:45.147Z,24.36
2023-05-19T07:16:47.181Z,24.36
2023-05-19T07:17:49.191Z,24.38
2023-05-19T07:18:51.157Z,24.39
2023-05-19T07:19:53.143Z,24.39
2023-05-19T07:20:55.087Z,24.40
2023-05-19T07:21:56.940Z,24.40
2023-05-19T07:22:58.888Z,24.41
2023-05-19T07:24:00.643Z,24.40
2023-05-19T07:25:02.377Z,24.42
2023-05-19T07:26:04.211Z,24.41
2023-05-19T07:27:06.127Z,24.41
2023-05-19T07:28:08.044Z,24.42
2023-05-19T07:29:09.987Z,24.44
2023-05-19T07:30:12.069Z,24.43
2023-05-19T07:31:13.882Z,24.43
2023-05-19T07:32:15.862Z,24.43
2023-05-19T07:33:17.790Z,24.42
2023-05-19T07:34:19.656Z,24.44
2023-05-19T07:35:21.407Z,24.45
2023-05-19T07:36:23.963Z,24.45
2023-05-19T07:37:25.875Z,24.46
2023-05-19T07:38:27.801Z,24.47
2023-05-19T07:39:29.842Z,24.48
2023-05-19T07:40:32.313Z,24.50
2023-05-19T07:41:36.287Z,24.51
2023-05-19T07:42:38.131Z,24.52
2023-05-19T07:43:39.873Z,24.53
2023-05-19T07:44:41.603Z,24.54
2023-05-19T07:45:43.404Z,24.56
2023-05-19T07:46:45.334Z,24.57
2023-05-19T07:47:47.240Z,24.58
2023-05-19T07:48:49.084Z,24.59
2023-05-19T07:49:51.867Z,24.61
2023-05-19T07:50:54.166Z,24.61
2023-05-19T07:51:56.115Z,24.62
2023-05-19T07:52:58.065Z,24.63
2023-05-19T07:54:00.016Z,24.66
2023-05-19T07:55:01.867Z,24.68
2023-05-19T07:56:03.715Z,24.69
2023-05-19T07:57:05.478Z,24.71
2023-05-19T07:58:07.654Z,24.73
2023-05-19T07:59:09.528Z,24.75
2023-05-19T08:00:11.356Z,24.78
2023-05-19T08:01:13.227Z,24.80
2023-05-19T08:02:14.980Z,24.80
2023-05-19T08:03:16.995Z,24.85
2023-05-19T08:04:19.035Z,24.86
2023-05-19T08:05:21.002Z,24.87
2023-05-19T08:06:23.149Z,24.89
2023-05-19T08:07:24.998Z,24.91
2023-05-19T08:08:26.761Z,24.93
2023-05-19T08:09:28.621Z,24.94
2023-05-19T08:10:30.760Z,24.96
2023-05-19T08:11:32.814Z,24.97
2023-05-19T08:12:34.658Z,24.97
2023-05-19T08:13:36.438Z,25.00
2023-05-19T08:14:38.279Z,25.02
2023-05-19T08:15:40.052Z,25.06
2023-05-19T08:16:42.174Z,25.06
2023-05-19T08:17:44.123Z,25.09
2023-05-19T08:18:46.190Z,25.10
2023-05-19T08:19:48.026Z,25.10
2023-05-19T08:20:49.939Z,25.13
2023-05-19T08:21:51.681Z,25.13
2023-05-19T08:22:53.529Z,25.15
2023-05-19T08:23:55.409Z,25.17
2023-05-19T08:24:57.260Z,25.18
2023-05-19T08:25:59.095Z,25.20
2023-05-19T08:27:01.093Z,25.22
2023-05-19T08:28:03.017Z,25.24
2023-05-19T08:29:05.052Z,25.25
2023-05-19T08:30:07.058Z,25.26
2023-05-19T08:31:08.929Z,25.28
2023-05-19T08:32:12.457Z,25.31
2023-05-19T08:33:14.565Z,25.32
2023-05-19T08:34:16.372Z,25.34
2023-05-19T08:35:18.125Z,25.35
2023-05-19T08:36:20.069Z,25.35
2023-05-19T08:37:21.889Z,25.37
2023-05-19T08:38:23.725Z,25.40
2023-05-19T08:39:25.593Z,25.40
2023-05-19T08:40:27.450Z,25.42
2023-05-19T08:41:29.309Z,25.43
2023-05-19T08:42:31.150Z,25.44
2023-05-19T08:43:33.003Z,25.45
2023-05-19T08:44:34.896Z,25.47
2023-05-19T08:45:36.758Z,25.49
2023-05-19T08:46:38.691Z,25.50
2023-05-19T08:47:40.462Z,25.52
2023-05-19T08:48:42.196Z,25.56
2023-05-19T08:49:43.941Z,25.57
2023-05-19T08:50:45.791Z,25.61
2023-05-19T08:51:47.499Z,25.62
2023-05-19T08:52:51.843Z,25.62
2023-05-19T08:53:53.063Z,25.64
2023-05-19T08:54:54.980Z,25.64
2023-05-19T08:55:56.842Z,25.64
2023-05-19T08:56:58.774Z,25.64
2023-05-19T08:58:00.665Z,25.65
2023-05-19T08:59:02.710Z,25.64
2023-05-19T09:00:04.877Z,25.64
2023-05-19T09:01:06.854Z,25.64
2023-05-19T09:02:08.886Z,25.64
2023-05-19T09:04:15.346Z,25.62
2023-05-19T09:05:17.519Z,25.61
2023-05-19T09:06:19.451Z,25.61
2023-05-19T09:07:21.325Z,25.62
2023-05-19T09:08:23.058Z,25.61
2023-05-19T09:09:24.932Z,25.57
2023-05-19T09:10:28.469Z,25.57
2023-05-19T09:11:30.613Z,25.61
2023-05-19T09:12:32.468Z,25.60
2023-05-19T09:13:34.324Z,25.62
2023-05-19T09:14:36.167Z,25.63
2023-05-19T09:15:38.068Z,25.63
2023-05-19T09:16:39.989Z,25.65
2023-05-19T09:19:03.133Z,25.71
2023-05-19T09:20:05.051Z,25.73
2023-05-19T09:21:06.925Z,25.77
2023-05-19T09:22:08.808Z,25.77
2023-05-19T09:23:12.855Z,25.80
2023-05-19T09:24:14.630Z,25.84
2023-05-19T09:25:16.541Z,25.86
2023-05-19T09:26:18.821Z,25.88
2023-05-19T09:27:20.670Z,25.91
2023-05-19T09:28:22.507Z,25.92
2023-05-19T09:29:24.281Z,25.96
2023-05-19T09:30:26.108Z,25.99
2023-05-19T09:31:28.021Z,26.00
2023-05-19T09:32:30.001Z,26.04
2023-05-19T09:33:32.980Z,26.05
2023-05-19T09:34:34.933Z,26.08
2023-05-19T09:35:36.974Z,26.10
2023-05-19T09:36:39.030Z,26.12
2023-05-19T09:37:40.963Z,26.14
2023-05-19T09:38:42.815Z,26.18
2023-05-19T09:39:44.773Z,26.22
2023-05-19T09:40:46.820Z,26.24
2023-05-19T09:41:48.777Z,26.24
2023-05-19T09:42:50.728Z,26.25
2023-05-19T09:43:52.495Z,26.25
2023-05-19T09:44:54.428Z,26.27
2023-05-19T09:45:56.439Z,26.27
2023-05-19T09:46:58.582Z,26.29
2023-05-19T09:48:00.531Z,26.30
2023-05-19T09:49:02.546Z,26.33
2023-05-19T09:50:04.602Z,26.36
2023-05-19T09:51:06.607Z,26.38
2023-05-19T09:52:09.115Z,26.39
2023-05-19T09:53:12.939Z,26.38
2023-05-19T09:54:14.763Z,26.37
2023-05-19T09:55:16.720Z,26.37
2023-05-19T09:56:18.780Z,26.39
2023-05-19T09:57:20.726Z,26.41
2023-05-19T09:58:22.680Z,26.41
2023-05-19T09:59:24.633Z,26.41
2023-05-19T10:00:26.688Z,26.35
2023-05-19T10:01:28.765Z,26.40
2023-05-19T10:02:30.693Z,26.38
2023-05-19T10:03:32.754Z,26.38
2023-05-19T10:04:34.657Z,26.35
2023-05-19T10:05:36.666Z,26.32
2023-05-19T10:06:38.805Z,26.31
2023-05-19T10:07:40.772Z,26.30
2023-05-19T10:08:42.632Z,26.29
2023-05-19T10:11:05.866Z,26.28
2023-05-19T10:12:07.830Z,26.28
2023-05-19T10:13:10.078Z,26.28
2023-05-19T10:14:12.061Z,26.29
2023-05-19T10:15:14.001Z,26.29
2023-05-19T10:16:16.371Z,26.30
2023-05-19T10:17:18.399Z,26.30
2023-05-19T10:18:20.355Z,26.29
2023-05-19T10:19:22.365Z,26.26
2023-05-19T10:20:24.362Z,26.26
2023-05-19T10:21:26.326Z,26.25
2023-05-19T10:22:28.366Z,26.23
2023-05-19T10:23:30.219Z,26.21
2023-05-19T10:24:32.224Z,26.21
2023-05-19T10:25:34.249Z,26.19
2023-05-19T10:26:36.792Z,26.18
2023-05-19T10:27:38.758Z,26.17
2023-05-19T10:28:40.595Z,26.15
2023-05-19T10:29:42.454Z,26.16
2023-05-19T10:30:44.733Z,26.15
2023-05-19T10:31:46.698Z,26.15
2023-05-19T10:32:48.735Z,26.15
2023-05-19T10:33:50.677Z,26.15
2023-05-19T10:34:52.643Z,26.16
2023-05-19T10:35:54.672Z,26.17
2023-05-19T10:36:56.930Z,26.17
2023-05-19T10:37:58.677Z,26.16
2023-05-19T10:39:00.637Z,26.16
2023-05-19T10:40:02.582Z,26.18
2023-05-19T10:41:04.445Z,26.20
2023-05-19T10:42:06.505Z,26.22
2023-05-19T10:43:08.543Z,26.24
2023-05-19T10:44:10.503Z,26.25
2023-05-19T10:45:12.454Z,26.26
2023-05-19T10:46:14.901Z,26.27
2023-05-19T10:47:16.942Z,26.28
2023-05-19T10:48:18.921Z,26.28
2023-05-19T10:49:20.766Z,26.29
2023-05-19T10:50:22.750Z,26.29
2023-05-19T10:51:24.780Z,26.29
2023-05-19T10:52:26.965Z,26.29
2023-05-19T10:53:28.905Z,26.29
2023-05-19T10:54:31.056Z,26.28
2023-05-19T10:55:33.036Z,26.28
2023-05-19T10:56:35.270Z,26.29
2023-05-19T10:57:37.218Z,26.31
2023-05-19T10:58:39.185Z,26.31
2023-05-19T10:59:41.222Z,26.32
2023-05-19T11:00:43.186Z,26.31
2023-05-19T11:01:45.259Z,26.30
2023-05-19T11:02:47.302Z,26.29
2023-05-19T11:03:49.389Z,26.28
2023-05-19T11:04:51.900Z,26.27
2023-05-19T11:05:54.058Z,26.27
2023-05-19T11:06:55.906Z,26.25
2023-05-19T11:07:57.868Z,26.25
2023-05-19T11:08:59.715Z,26.25
2023-05-19T11:10:01.769Z,26.23
2023-05-19T11:11:03.727Z,26.23
2023-05-19T11:12:05.675Z,26.22
2023-05-19T11:13:07.640Z,26.21
2023-05-19T11:14:09.679Z,26.22
2023-05-19T11:15:11.637Z,26.22
2023-05-19T11:16:13.806Z,26.23
2023-05-19T11:17:15.788Z,26.23
2023-05-19T11:18:17.794Z,26.22
2023-05-19T11:19:19.702Z,26.21
2023-05-19T11:20:22.321Z,26.21
2023-05-19T11:21:24.330Z,26.23
2023-05-19T11:22:26.257Z,26.23
2023-05-19T11:23:28.465Z,26.22
2023-05-19T11:24:30.436Z,26.21
2023-05-19T11:25:32.529Z,26.21
2023-05-19T11:26:34.643Z,26.22
2023-05-19T11:27:36.597Z,26.25
2023-05-19T11:28:38.445Z,26.28
2023-05-19T11:29:40.306Z,26.31
2023-05-19T11:30:42.558Z,26.32
2023-05-19T11:31:44.562Z,26.32
2023-05-19T11:32:46.546Z,26.33
2023-05-19T11:33:48.418Z,26.33
2023-05-19T11:34:50.378Z,26.32
2023-05-19T11:35:52.325Z,26.32
2023-05-19T11:36:54.373Z,26.31
2023-05-19T11:37:56.330Z,26.29
2023-05-19T11:38:58.177Z,26.27
2023-05-19T11:40:02.698Z,26.27
2023-05-19T11:41:04.748Z,26.25
2023-05-19T11:42:06.707Z,26.21
2023-05-19T11:43:08.654Z,26.17
2023-05-19T11:44:10.608Z,26.16
2023-05-19T11:45:12.752Z,26.13
2023-05-19T11:46:15.668Z,26.10
2023-05-19T11:47:17.581Z,26.09
2023-05-19T11:48:19.453Z,26.07
2023-05-19T11:49:21.496Z,26.03
2023-05-19T11:50:23.582Z,26.02
2023-05-19T11:51:25.595Z,25.99
2023-05-19T11:52:27.564Z,25.95
2023-05-19T11:53:29.508Z,25.94
2023-05-19T11:54:31.456Z,25.94
2023-05-19T11:55:33.503Z,25.94
2023-05-19T11:56:35.565Z,25.93
2023-05-19T11:57:37.411Z,25.94
2023-05-19T11:58:39.183Z,25.95
2023-05-19T11:59:41.014Z,25.95
2023-05-19T12:00:43.177Z,25.96
2023-05-19T12:01:45.226Z,25.97
2023-05-19T12:02:47.168Z,25.99
2023-05-19T12:03:49.358Z,26.02
2023-05-19T12:04:51.536Z,26.03
2023-05-19T12:05:53.352Z,26.03
2023-05-19T12:06:55.501Z,26.02
2023-05-19T12:07:57.247Z,26.02
2023-05-19T12:08:59.218Z,26.02
2023-05-19T12:10:01.058Z,26.03
2023-05-19T12:11:02.909Z,26.03
2023-05-19T12:12:04.968Z,26.04
2023-05-19T12:13:06.902Z,26.04
2023-05-19T12:14:08.767Z,26.06
2023-05-19T12:15:11.413Z,26.06
2023-05-19T12:16:13.828Z,26.06
2023-05-19T12:17:15.859Z,26.07
2023-05-19T12:18:18.101Z,26.12
2023-05-19T12:19:19.966Z,26.12
2023-05-19T12:20:22.007Z,26.15
2023-05-19T12:21:24.271Z,26.15
2023-05-19T12:22:28.066Z,26.18
2023-05-19T12:23:29.908Z,26.20
2023-05-19T12:24:31.940Z,26.21
2023-05-19T12:25:34.221Z,26.22
2023-05-19T12:26:36.687Z,26.24
2023-05-19T12:27:38.542Z,26.23
2023-05-19T12:28:40.398Z,26.24
2023-05-19T12:29:42.342Z,26.25
2023-05-19T12:30:44.409Z,26.25
2023-05-19T12:31:46.739Z,26.25
2023-05-19T12:32:48.784Z,26.27
2023-05-19T12:33:50.671Z,26.27
2023-05-19T12:34:52.631Z,26.29
2023-05-19T12:35:54.984Z,26.30
2023-05-19T12:36:56.928Z,26.30
2023-05-19T12:37:58.893Z,26.33
2023-05-19T12:39:00.940Z,26.33
2023-05-19T12:40:02.899Z,26.35
2023-05-19T12:41:04.955Z,26.37
2023-05-19T12:42:07.014Z,26.38
2023-05-19T12:43:08.996Z,26.40
2023-05-19T12:44:10.903Z,26.41
2023-05-19T12:45:12.874Z,26.41
2023-05-19T12:46:15.653Z,26.44
2023-05-19T12:47:17.583Z,26.45
2023-05-19T12:48:19.560Z,26.46
2023-05-19T12:49:21.590Z,26.44
2023-05-19T12:50:23.953Z,26.43
2023-05-19T12:51:25.909Z,26.42
2023-05-19T12:52:27.754Z,26.42
2023-05-19T12:53:29.697Z,26.41
2023-05-19T12:54:31.597Z,26.42
2023-05-19T12:55:33.626Z,26.41
2023-05-19T12:56:35.567Z,26.38
2023-05-19T12:57:37.922Z,26.38
2023-05-19T12:58:39.882Z,26.35
2023-05-19T12:59:41.826Z,26.34
2023-05-19T13:00:44.218Z,26.31
2023-05-19T13:01:46.383Z,26.31
2023-05-19T13:02:48.442Z,26.30
2023-05-19T13:03:50.586Z,26.30
2023-05-19T13:04:52.627Z,26.30
2023-05-19T13:05:54.981Z,26.29
2023-05-19T13:06:56.946Z,26.29
2023-05-19T13:07:58.989Z,26.29
2023-05-19T13:09:00.948Z,26.29
2023-05-19T13:10:02.995Z,26.28
2023-05-19T13:11:04.987Z,26.29
2023-05-19T13:12:06.898Z,26.30
2023-05-19T13:13:08.850Z,26.29
2023-05-19T13:14:10.699Z,26.28
2023-05-19T13:15:12.658Z,26.27
2023-05-19T13:16:15.588Z,26.27
2023-05-19T13:17:17.580Z,26.26
2023-05-19T13:18:19.461Z,26.25
2023-05-19T13:19:25.476Z,26.25
2023-05-19T13:20:27.637Z,26.20
2023-05-19T13:21:29.078Z,26.25
2023-05-19T13:22:30.951Z,26.24
2023-05-19T13:23:32.893Z,26.25
2023-05-19T13:24:35.138Z,26.25
2023-05-19T13:25:37.100Z,26.25